Latest Weather Observations for Cape Naturaliste

IDW60801

Issued at 5:35 am WST Friday 22 August 2014 (issued every 30 minutes, with the page automatically refreshed every 10 minutes)

About weather observations | Map of weather stations | Latest weather observations for WA | Other Formats
Station Details ID: 009519 Name: CAPE NATURALISTE Lat: -33.54 Lon: 115.02 Height: 109.0 m
Data from the previous 72 hours. | See also: Recent months at Cape Naturaliste
Date/Time
WST
Temp
°C
App
Temp
°C
Dew
Point
Rel
Hum
%
Delta-T
°C
Wind Press
QNH
hPa
Press
MSL
hPa
Rain
since 9 am
mm
Dir
 
Spd
km/h
Gust
km/h
Spd
kts
Gust
kts
22/05:30am 12.3 4.6 7.2 71 2.5 W 37 57 20 31 1017.8 1017.8 7.6
22/05:18am 13.1 6.9 7.8 70 2.6 WSW 30 56 16 30 1017.3 1017.3 7.6
22/05:00am 12.7 6.4 7.2 69 2.7 SW 30 43 16 23 1017.1 1017.1 7.6
22/04:30am 12.8 4.2 6.4 65 3.1 SW 41 65 22 35 1016.4 1016.4 7.6
22/04:25am 13.8 6.1 7.1 64 3.3 SW 37 65 20 35 1016.3 1016.3 7.6
22/04:00am 13.5 5.0 5.2 57 3.9 WSW 39 52 21 28 1016.0 1016.0 7.6
22/03:30am 13.4 4.8 6.7 64 3.2 WSW 41 54 22 29 1015.7 1015.7 7.6
22/03:00am 12.7 5.2 7.8 72 2.4 W 37 46 20 25 1015.6 1015.6 7.6
22/02:37am 13.2 4.2 7.4 68 2.8 WSW 44 63 24 34 1015.4 1015.4 7.6
22/02:30am 13.1 4.1 7.3 68 2.8 WSW 44 61 24 33 1015.4 1015.4 7.6
22/02:00am 12.7 2.6 7.2 69 2.7 WSW 50 63 27 34 1015.1 1015.1 7.6
22/01:30am 12.6 3.2 8.9 78 1.9 WSW 48 61 26 33 1014.7 1014.7 7.6
22/01:07am 12.5 2.8 9.1 80 1.7 W 50 69 27 37 1014.4 1014.4 7.6
22/01:00am 12.2 2.1 9.0 81 1.6 WSW 52 63 28 34 1014.4 1014.4 7.6
22/12:30am 12.2 1.7 9.0 81 1.6 WSW 54 76 29 41 1014.0 1014.0 7.4
22/12:27am 12.6 2.2 9.1 79 1.8 WSW 54 76 29 41 1013.9 1013.9 7.0
22/12:23am 13.3 3.7 9.5 78 1.9 WSW 50 59 27 32 1013.8 1013.8 6.4
22/12:02am 12.7 5.2 9.5 81 1.6 W 39 59 21 32 1013.6 1013.6 6.4
22/12:00am 12.7 5.6 9.7 82 1.5 W 37 54 20 29 1013.7 1013.7 6.4
 
Date/Time
WST
Temp
°C
App
Temp
°C
Dew
Point
Rel
Hum
%
Delta-T
°C
Wind Press
QNH
hPa
Press
MSL
hPa
Rain
since 9 am
mm
Dir
 
Spd
km/h
Gust
km/h
Spd
kts
Gust
kts
21/11:30pm 12.9 4.7 9.7 81 1.6 W 43 61 23 33 1013.6 1013.6 6.2
21/11:02pm 12.5 4.6 9.3 81 1.6 WNW 41 63 22 34 1013.7 1013.7 6.2
21/11:00pm 12.8 5.4 10.0 83 1.4 WNW 39 50 21 27 1013.6 1013.6 6.2
21/10:49pm 12.2 3.6 8.9 80 1.7 W 44 63 24 34 1013.7 1013.7 6.2
21/10:37pm 12.4 3.1 7.7 73 2.3 W 46 56 25 30 1013.7 1013.7 6.0
21/10:34pm 13.0 -0.7 7.5 69 2.7 W 69 91 37 49 1013.4 1013.4 5.4
21/10:32pm 14.8 6.2 9.0 68 3.0 WNW 44 87 24 47 1013.4 1013.4 5.0
21/10:30pm 14.9 6.8 8.6 66 3.2 WNW 41 61 22 33 1013.4 1013.4 5.0
21/10:00pm 14.6 5.8 7.2 61 3.7 WNW 43 59 23 32 1013.3 1013.3 5.0
21/09:30pm 14.1 5.0 6.9 62 3.5 W 44 57 24 31 1013.3 1013.3 5.0
21/09:00pm 14.2 5.7 8.4 68 2.9 W 43 56 23 30 1013.1 1013.1 5.0
21/08:30pm 13.7 4.9 8.1 69 2.8 W 44 54 24 29 1013.0 1013.0 5.0
21/08:00pm 13.3 5.0 9.2 76 2.1 WNW 43 57 23 31 1012.7 1012.7 5.0
21/07:30pm 12.8 5.7 9.6 81 1.6 WNW 37 57 20 31 1012.3 1012.2 5.0
21/07:00pm 13.1 6.4 8.2 72 2.4 WNW 33 52 18 28 1012.1 1012.0 4.0
21/06:56pm 14.3 8.0 8.9 70 2.8 WNW 32 52 17 28 1012.1 1012.0 3.6
21/06:30pm 14.9 7.8 7.9 63 3.5 WNW 35 46 19 25 1011.7 1011.6 3.0
21/06:00pm 14.6 9.8 9.0 69 2.9 WNW 24 33 13 18 1011.4 1011.3 3.0
21/05:30pm 14.4 9.6 9.0 70 2.8 WNW 24 35 13 19 1011.2 1011.1 3.0
21/05:00pm 14.9 9.4 9.1 68 3.0 W 28 35 15 19 1011.0 1010.9 3.0
21/04:30pm 16.3 10.9 9.5 64 3.6 W 28 39 15 21 1010.6 1010.5 3.0
21/04:00pm 16.6 10.9 9.8 64 3.6 W 30 39 16 21 1010.6 1010.5 3.0
21/03:30pm 16.2 9.8 8.7 61 3.9 W 32 41 17 22 1010.3 1010.2 3.0
21/03:00pm 17.1 10.3 9.3 60 4.1 WSW 35 44 19 24 1010.2 1010.1 3.0
21/02:30pm 17.4 11.1 9.8 61 4.0 WSW 33 43 18 23 1009.8 1009.7 3.0
21/02:00pm 17.6 10.2 10.0 61 4.0 W 39 50 21 27 1009.6 1009.5 3.0
21/01:30pm 17.4 9.3 10.1 62 3.9 W 43 54 23 29 1009.5 1009.4 3.0
21/01:20pm 17.3 9.7 10.4 64 3.7 W 41 59 22 32 1009.3 1009.3 3.0
21/01:00pm 17.3 10.5 12.0 71 2.9 W 39 54 21 29 1009.5 1009.4 3.0
21/12:30pm 16.1 10.6 12.3 78 2.1 W 33 43 18 23 1009.3 1009.3 3.0
21/12:00pm 15.7 10.4 13.2 85 1.4 W 33 44 18 24 1009.9 1009.8 3.0
21/11:30am 14.7 10.3 12.9 89 1.0 WSW 28 35 15 19 1009.9 1009.8 3.0
21/11:00am 14.2 7.9 12.4 89 1.0 WSW 37 50 20 27 1009.8 1009.7 3.0
21/10:30am 14.5 9.0 12.4 87 1.1 WSW 33 43 18 23 1009.5 1009.4 2.2
21/10:00am 15.2 10.2 12.1 82 1.7 WSW 30 41 16 22 1009.1 1009.1 1.2
21/09:30am 15.8 11.3 12.5 81 1.8 NW 28 37 15 20 1008.9 1008.9 0.2
21/09:00am 16.4 11.3 11.8 74 2.5 WNW 30 43 16 23 1008.6 1008.6 14.8
21/08:30am 15.5 8.8 10.9 74 2.5 W 37 46 20 25 1008.4 1008.4 14.8
21/08:00am 15.4 7.9 10.8 74 2.5 W 41 52 22 28 1007.9 1007.9 14.8
21/07:30am 15.2 7.7 11.0 76 2.2 W 41 54 22 29 1007.4 1007.4 14.8
21/07:00am 14.6 6.1 10.8 78 2.0 W 46 59 25 32 1006.8 1006.8 14.8
21/06:30am 14.3 7.5 11.8 85 1.4 W 39 50 21 27 1006.2 1006.2 14.8
21/06:00am 14.7 6.9 12.9 89 1.0 W 46 63 25 34 1006.0 1006.0 14.8
21/05:30am 15.1 6.4 13.6 91 0.8 W 52 70 28 38 1005.7 1005.7 14.8
21/05:25am 14.9 6.1 13.4 91 0.8 W 52 70 28 38 1005.6 1005.6 14.8
21/05:00am 15.2 7.3 13.7 91 0.8 W 48 63 26 34 1005.2 1005.2 14.8
21/04:41am 15.8 9.8 14.5 92 0.7 W 39 57 21 31 1005.1 1005.1 14.2
21/04:30am 15.9 9.6 14.6 92 0.7 W 41 52 22 28 1004.9 1004.9 14.2
21/04:00am 16.0 10.4 14.5 91 0.9 W 37 48 20 26 1004.3 1004.2 14.0
21/03:53am 16.3 8.4 14.8 91 0.9 WNW 50 69 27 37 1004.2 1004.1 11.2
21/03:30am 16.8 8.7 15.5 92 0.8 N 52 70 28 38 1003.9 1003.8 10.0
21/03:00am 16.6 8.4 15.1 91 0.9 N 52 70 28 38 1004.5 1004.4 8.2
21/02:30am 16.3 8.4 14.8 91 0.9 N 50 63 27 34 1005.3 1005.3 7.2
21/02:06am 16.5 10.0 15.0 91 0.9 N 43 61 23 33 1005.6 1005.6 4.4
21/02:00am 16.5 10.0 15.0 91 0.9 N 43 56 23 30 1005.8 1005.8 4.4
21/01:30am 16.3 8.7 14.8 91 0.9 N 48 61 26 33 1006.6 1006.6 4.2
21/01:15am 16.2 9.5 14.6 90 0.9 N 43 61 23 33 1006.9 1006.9 4.0
21/01:00am 16.2 10.3 14.7 91 0.9 N 39 52 21 28 1007.2 1007.2 3.8
21/12:30am 16.0 9.2 14.4 90 0.9 N 43 59 23 32 1007.5 1007.5 2.8
21/12:00am 16.1 9.0 14.1 88 1.1 N 44 59 24 32 1008.0 1008.0 1.8
 
Date/Time
WST
Temp
°C
App
Temp
°C
Dew
Point
Rel
Hum
%
Delta-T
°C
Wind Press
QNH
hPa
Press
MSL
hPa
Rain
since 9 am
mm
Dir
 
Spd
km/h
Gust
km/h
Spd
kts
Gust
kts
20/11:33pm 16.2 9.4 14.2 88 1.1 N 43 61 23 33 1008.3 1008.3 1.4
20/11:30pm 16.2 9.4 14.2 88 1.1 N 43 54 23 29 1008.4 1008.4 1.4
20/11:00pm 15.9 8.3 13.7 87 1.2 N 46 59 25 32 1008.7 1008.7 1.2
20/10:38pm 16.1 9.6 14.1 88 1.1 N 41 59 22 32 1009.2 1009.2 1.2
20/10:30pm 15.9 10.6 14.1 89 1.0 N 35 52 19 28 1009.5 1009.4 1.0
20/10:28pm 15.9 10.9 14.1 89 1.0 N 33 52 18 28 1009.5 1009.4 1.0
20/10:00pm 15.3 9.8 13.5 89 1.0 N 35 46 19 25 1010.1 1010.0 1.0
20/09:30pm 15.2 8.8 13.1 87 1.2 N 39 48 21 26 1010.8 1010.7 0.8
20/09:05pm 15.5 9.8 13.0 85 1.4 N 35 54 19 29 1010.8 1010.7 0.6
20/09:00pm 15.5 10.2 13.0 85 1.4 N 33 46 18 25 1010.8 1010.7 0.6
20/08:30pm 15.4 10.5 12.7 84 1.5 N 30 41 16 22 1011.3 1011.2 0.4
20/08:00pm 15.9 10.4 12.3 79 2.0 N 33 41 18 22 1011.8 1011.7 0.0
20/07:30pm 16.7 11.0 11.8 73 2.7 N 33 43 18 23 1011.5 1011.4 0.0
20/07:00pm 16.5 10.9 11.6 73 2.7 N 32 39 17 21 1011.2 1011.1 0.0
20/06:30pm 16.3 10.9 11.0 71 2.9 N 30 39 16 21 1011.2 1011.1 0.0
20/06:00pm 16.2 11.9 10.9 71 2.8 N 24 32 13 17 1011.3 1011.2 0.0
20/05:30pm 16.2 11.8 10.5 69 3.0 NNW 24 33 13 18 1011.4 1011.3 0.0
20/05:00pm 17.2 12.1 10.6 65 3.5 NNW 28 35 15 19 1011.6 1011.5 0.0
20/04:30pm 17.7 12.5 10.3 62 4.0 NW 28 35 15 19 1011.7 1011.6 0.0
20/04:00pm 17.8 13.5 10.9 64 3.7 NW 24 35 13 19 1011.6 1011.5 0.0
20/03:30pm 19.2 15.1 11.3 60 4.3 NW 24 32 13 17 1011.7 1011.6 0.0
20/03:00pm 18.7 14.3 10.5 59 4.4 NNW 24 32 13 17 1011.7 1011.6 0.0
20/02:30pm 18.5 14.3 11.1 62 4.0 NNW 24 32 13 17 1011.8 1011.7 0.0
20/02:00pm 19.4 16.1 12.7 65 3.8 N 22 30 12 16 1012.0 1011.9 0.0
20/01:30pm 19.2 16.1 13.4 69 3.3 N 22 32 12 17 1012.0 1011.9 0.0
20/01:00pm 17.6 12.5 10.7 64 3.7 NW 28 39 15 21 1012.6 1012.6 0.0
20/12:30pm 18.6 14.8 12.4 67 3.5 NW 24 33 13 18 1013.0 1013.0 0.0
20/12:00pm 17.9 14.0 12.1 69 3.2 WNW 24 30 13 16 1013.2 1013.2 0.0
20/11:30am 16.7 11.4 13.0 79 2.1 NW 33 52 18 28 1013.6 1013.6 0.0
20/11:25am 16.2 11.4 11.6 74 2.5 NW 28 52 15 28 1013.7 1013.7 0.0
20/11:00am 16.8 13.0 12.5 76 2.4 NNW 24 33 13 18 1013.9 1013.9 0.0
20/10:30am 16.4 13.2 11.8 74 2.5 NW 20 35 11 19 1013.9 1013.9 0.0
20/10:00am 16.4 12.3 11.6 73 2.6 NNW 24 33 13 18 1014.0 1014.0 0.0
20/09:30am 16.9 13.4 11.0 68 3.2 NNW 20 28 11 15 1014.3 1014.3 0.0
20/09:00am 16.9 14.5 12.6 76 2.4 N 17 20 9 11 1014.4 1014.4 0.4
20/08:30am 17.2 15.5 13.5 79 2.1 N 15 19 8 10 1014.5 - 0.4
20/08:00am 14.8 12.0 11.4 80 1.8 N 17 24 9 13 1014.4 1014.4 0.4
20/07:30am 14.7 11.7 10.7 77 2.1 NNW 17 20 9 11 1014.4 - 0.4
20/07:00am 14.4 11.8 10.6 78 2.0 NW 15 20 8 11 1014.2 1014.2 0.4
20/06:30am 13.9 10.7 10.1 78 2.0 NW 17 20 9 11 1013.9 - 0.4
20/06:00am 13.2 10.3 9.6 79 1.8 NW 15 17 8 9 1013.7 1013.7 0.4
20/05:30am 13.1 9.4 9.5 79 1.8 WNW 19 20 10 11 1013.6 - 0.4
20/05:00am 12.8 9.4 9.1 78 1.9 NW 17 19 9 10 1013.7 1013.7 0.4
20/04:30am 12.8 10.1 8.9 77 2.0 NW 13 17 7 9 1013.7 - 0.4
20/04:00am 13.2 11.0 9.3 77 2.0 NW 11 13 6 7 1013.8 1013.8 0.4
20/03:30am 12.8 9.4 9.3 79 1.8 NW 17 19 9 10 1014.4 - 0.4
20/03:00am 12.9 9.7 9.9 82 1.5 NW 17 20 9 11 1014.6 1014.6 0.4
20/02:30am 13.1 9.7 10.5 84 1.4 WNW 19 24 10 13 1015.1 - 0.4
20/02:00am 13.5 10.6 11.0 85 1.3 NW 17 20 9 11 1015.3 1015.3 0.4
20/01:30am 14.0 13.2 11.7 86 1.2 N 7 11 4 6 1015.7 - 0.4
20/01:00am 13.6 12.8 11.1 85 1.3 NE 6 6 3 3 1015.7 1015.7 0.2
20/12:30am 13.5 12.7 11.0 85 1.3 NE 6 7 3 4 1016.0 - 0.2
20/12:00am 13.6 12.6 11.1 85 1.3 NE 7 7 4 4 1016.0 1016.0 0.2
 
Date/Time
WST
Temp
°C
App
Temp
°C
Dew
Point
Rel
Hum
%
Delta-T
°C
Wind Press
QNH
hPa
Press
MSL
hPa
Rain
since 9 am
mm
Dir
 
Spd
km/h
Gust
km/h
Spd
kts
Gust
kts
19/11:30pm 13.7 12.8 11.2 85 1.3 SW 7 9 4 5 1016.0 - 0.2
19/11:00pm 13.9 13.6 11.4 85 1.3 SW 4 7 2 4 1016.0 1016.0 0.2
19/10:30pm 13.6 12.6 11.1 85 1.3 SSE 7 9 4 5 1016.3 - 0.0
19/10:00pm 12.6 10.5 9.8 83 1.4 SSE 11 13 6 7 1016.3 1016.3 0.0
19/09:30pm 13.2 11.7 10.4 83 1.5 S 9 11 5 6 1016.5 - 0.0
19/09:00pm 13.3 11.0 10.3 82 1.6 S 13 13 7 7 1016.6 1016.6 0.0
19/08:30pm 13.4 11.5 10.4 82 1.6 S 11 15 6 8 1016.5 - 0.0
19/08:00pm 13.7 11.4 10.3 80 1.8 S 13 15 7 8 1016.2 1016.2 0.0
19/07:30pm 14.7 11.9 11.3 80 1.8 SW 17 22 9 12 1016.2 - 0.0
19/07:00pm 14.9 12.1 11.3 79 1.9 SSW 17 22 9 12 1015.9 1015.9 0.0
19/06:30pm 14.9 11.5 11.1 78 2.0 SSW 20 26 11 14 1015.7 - 0.0
19/06:00pm 15.2 11.7 11.0 76 2.2 SSW 20 30 11 16 1015.5 1015.5 0.0
19/05:30pm 15.9 11.7 11.1 73 2.6 SSW 24 32 13 17 1015.5 - 0.0
19/05:00pm 16.7 13.0 11.4 71 2.9 SSW 22 28 12 15 1015.5 1015.5 0.0
19/04:30pm 17.3 13.6 11.6 69 3.1 SW 22 28 12 15 1015.4 - 0.0
19/04:00pm 17.6 13.9 11.6 68 3.3 SW 22 28 12 15 1015.4 1015.4 0.0
19/03:30pm 18.0 14.4 11.8 67 3.4 SW 22 32 12 17 1015.3 - 0.0
19/03:00pm 18.4 14.5 12.2 67 3.4 SW 24 30 13 16 1015.2 1015.2 0.0
19/02:30pm 18.4 14.4 11.9 66 3.6 SSW 24 32 13 17 1014.9 - 0.0
19/02:00pm 18.4 14.5 12.2 67 3.5 SW 24 33 13 18 1015.0 1015.0 0.0
19/01:30pm 18.2 13.9 12.0 67 3.4 SW 26 35 14 19 1015.2 - 0.0
19/01:00pm 18.6 14.8 12.4 67 3.5 SSW 24 33 13 18 1015.3 1015.3 0.0
19/12:30pm 18.4 14.1 12.2 67 3.5 SW 26 33 14 18 1015.6 - 0.0
19/12:00pm 18.2 13.9 12.0 67 3.4 SSW 26 33 14 18 1015.7 1015.7 0.0
19/11:30am 18.0 14.0 11.8 67 3.4 SSW 24 35 13 19 1016.1 - 0.0
19/11:00am 18.0 13.7 12.2 69 3.2 SSW 26 35 14 19 1016.4 1016.4 0.0
19/10:30am 17.7 13.1 12.2 70 3.1 SSW 28 37 15 20 1016.3 - 0.0
19/10:00am 15.8 10.6 11.6 76 2.3 SSW 30 41 16 22 1016.3 1016.3 0.0
19/09:30am 15.5 11.4 11.5 77 2.2 SSW 24 35 13 19 1016.5 - 0.0
19/09:00am 16.6 11.4 11.7 73 2.7 SSW 30 39 16 21 1016.3 1016.3 5.4
19/08:30am 15.9 11.1 11.5 75 2.4 SSW 28 39 15 21 1016.2 - 5.4
19/08:00am 15.9 12.6 11.7 76 2.3 S 20 28 11 15 1016.1 1016.1 5.4
19/07:30am 15.3 11.6 11.5 78 2.1 S 22 35 12 19 1015.8 - 5.4
19/07:00am 14.9 10.0 11.3 79 1.9 SSW 28 37 15 20 1015.4 1015.4 5.4
19/06:30am 14.7 10.5 11.1 79 1.9 SSW 24 33 13 18 1015.1 - 5.4
19/06:00am 14.7 9.7 11.1 79 1.9 SSW 28 35 15 19 1014.8 1014.8 5.4

Other Formats:

Comma delimited format used in spreadsheet applications
http://www.bom.gov.au/fwo/IDW60801/IDW60801.94600.axf

JavaScript Object Notation format (JSON) in row-major order
http://www.bom.gov.au/fwo/IDW60801/IDW60801.94600.json